createdAt,value
2023-07-18T00:01:25.869Z,101803.81
2023-07-18T00:05:38.406Z,101818.19
2023-07-18T00:09:50.794Z,101808.75
2023-07-18T00:14:02.470Z,101804.44
2023-07-18T00:18:15.801Z,101808.22
2023-07-18T00:22:27.578Z,101807.59
2023-07-18T00:26:39.387Z,101792.25
2023-07-18T00:30:51.531Z,101780.72
2023-07-18T00:35:05.166Z,101798.84
2023-07-18T00:39:16.963Z,101795.38
2023-07-18T00:43:33.512Z,101792.06
2023-07-18T00:47:46.754Z,101791.94
2023-07-18T00:51:58.904Z,101790.00
2023-07-18T00:56:10.960Z,101799.03
2023-07-18T01:00:24.306Z,101791.22
2023-07-18T01:04:38.181Z,101792.50
2023-07-18T01:08:51.705Z,101794.91
2023-07-18T01:13:03.424Z,101794.38
2023-07-18T01:17:15.129Z,101797.75
2023-07-18T01:21:26.830Z,101797.81
2023-07-18T01:25:39.365Z,101794.34
2023-07-18T01:29:52.708Z,101793.78
2023-07-18T01:34:05.815Z,101784.66
2023-07-18T01:38:17.596Z,101786.53
2023-07-18T01:42:29.292Z,101774.91
2023-07-18T01:46:41.154Z,101777.50
2023-07-18T01:50:53.436Z,101771.91
2023-07-18T01:55:10.852Z,101765.06
2023-07-18T01:59:23.423Z,101755.53
2023-07-18T02:03:35.278Z,101747.72
2023-07-18T02:07:48.933Z,101747.94
2023-07-18T02:12:01.508Z,101758.34
2023-07-18T02:16:13.201Z,101750.09
2023-07-18T02:20:24.879Z,101750.50
2023-07-18T02:24:36.577Z,101750.97
2023-07-18T02:28:48.988Z,101746.03
2023-07-18T02:33:00.699Z,101750.81
2023-07-18T02:37:12.614Z,101742.94
2023-07-18T02:41:24.378Z,101740.66
2023-07-18T02:45:36.050Z,101740.88
2023-07-18T02:49:47.848Z,101736.31
2023-07-18T02:53:59.550Z,101738.41
2023-07-18T02:58:14.665Z,101730.50
2023-07-18T03:02:26.782Z,101735.91
2023-07-18T03:06:38.534Z,101721.44
2023-07-18T03:10:50.296Z,101722.47
2023-07-18T03:15:02.730Z,101728.75
2023-07-18T03:19:15.499Z,101739.38
2023-07-18T03:23:27.650Z,101746.00
2023-07-18T03:27:39.548Z,101737.91
2023-07-18T03:31:51.850Z,101745.03
2023-07-18T03:36:06.215Z,101746.06
2023-07-18T03:40:18.227Z,101742.19
2023-07-18T03:44:29.990Z,101740.09
2023-07-18T03:48:41.814Z,101765.41
2023-07-18T03:52:53.538Z,101759.59
2023-07-18T03:57:05.575Z,101756.91
2023-07-18T04:01:17.705Z,101749.19
2023-07-18T04:05:29.816Z,101747.94
2023-07-18T04:09:41.622Z,101742.91
2023-07-18T04:13:53.327Z,101734.16
2023-07-18T04:18:05.484Z,101733.50
2023-07-18T04:22:17.562Z,101728.28
2023-07-18T04:26:29.271Z,101718.09
2023-07-18T04:30:40.942Z,101725.28
2023-07-18T04:34:52.616Z,101727.63
2023-07-18T04:39:05.036Z,101728.88
2023-07-18T04:43:16.754Z,101729.97
2023-07-18T04:47:29.893Z,101726.59
2023-07-18T04:51:41.726Z,101730.59
2023-07-18T04:55:53.522Z,101726.50
2023-07-18T05:00:06.835Z,101730.53
2023-07-18T05:04:19.136Z,101741.03
2023-07-18T05:08:30.922Z,101733.75
2023-07-18T05:12:42.947Z,101727.50
2023-07-18T05:16:54.639Z,101733.13
2023-07-18T05:21:06.252Z,101725.91
2023-07-18T05:25:18.640Z,101729.31
2023-07-18T05:29:30.322Z,101736.00
2023-07-18T05:33:42.613Z,101737.44
2023-07-18T05:37:54.326Z,101730.13
2023-07-18T05:42:31.644Z,101724.47
2023-07-18T05:46:43.480Z,101721.50
2023-07-18T05:50:56.990Z,101724.25
2023-07-18T05:55:09.546Z,101730.72
2023-07-18T05:59:21.336Z,101721.53
2023-07-18T06:03:33.281Z,101735.16
2023-07-18T06:07:45.079Z,101734.94
2023-07-18T06:11:56.877Z,101741.31
2023-07-18T06:16:09.859Z,101722.34
2023-07-18T06:20:21.552Z,101726.66
2023-07-18T06:24:33.281Z,101730.84
2023-07-18T06:28:44.956Z,101747.81
2023-07-18T06:32:56.818Z,101733.50
2023-07-18T06:37:11.371Z,101738.56
2023-07-18T06:41:23.509Z,101744.84
2023-07-18T06:45:35.171Z,101741.78
2023-07-18T06:49:47.169Z,101741.34
2023-07-18T06:53:58.876Z,101745.47
2023-07-18T06:58:10.907Z,101737.41
2023-07-18T07:02:22.694Z,101738.25
2023-07-18T07:06:34.453Z,101732.44
2023-07-18T07:10:46.594Z,101739.72
2023-07-18T07:14:58.315Z,101721.88
2023-07-18T07:19:09.999Z,101721.44
2023-07-18T07:23:22.078Z,101724.53
2023-07-18T07:27:33.762Z,101726.84
2023-07-18T07:31:45.507Z,101720.41
2023-07-18T07:35:57.257Z,101717.81
2023-07-18T07:40:12.476Z,101720.13
2023-07-18T07:44:24.552Z,101708.88
2023-07-18T07:48:36.340Z,101717.97
2023-07-18T07:52:48.078Z,101711.72
2023-07-18T07:56:59.842Z,101709.50
2023-07-18T08:01:11.528Z,101717.47
2023-07-18T08:05:24.069Z,101702.00
2023-07-18T08:09:36.071Z,101708.72
2023-07-18T08:13:48.225Z,101695.00
2023-07-18T08:18:01.353Z,101692.22
2023-07-18T08:22:13.097Z,101693.81
2023-07-18T08:26:24.769Z,101691.75
2023-07-18T08:30:36.509Z,101683.13
2023-07-18T08:34:48.185Z,101687.75
2023-07-18T08:38:59.924Z,101689.00
2023-07-18T08:43:15.938Z,101683.44
2023-07-18T08:47:28.499Z,101684.31
2023-07-18T08:51:40.281Z,101687.72
2023-07-18T08:55:52.080Z,101692.03
2023-07-18T09:00:05.959Z,101671.06
2023-07-18T09:04:18.987Z,101669.97
2023-07-18T09:08:44.813Z,101659.44
2023-07-18T09:13:02.256Z,101653.69
2023-07-18T09:17:13.923Z,101646.03
2023-07-18T09:21:25.833Z,101648.13
2023-07-18T09:25:41.369Z,101652.97
2023-07-18T09:29:53.338Z,101646.75
2023-07-18T09:34:13.355Z,101661.34
2023-07-18T09:38:26.821Z,101652.63
2023-07-18T09:42:45.248Z,101656.44
2023-07-18T09:46:59.484Z,101634.72
2023-07-18T09:51:15.626Z,101644.25
2023-07-18T09:55:28.445Z,101640.03
2023-07-18T09:59:41.175Z,101634.22
2023-07-18T10:03:55.527Z,101617.84
2023-07-18T10:08:08.874Z,101630.31
2023-07-18T10:12:21.223Z,101619.16
2023-07-18T10:16:36.409Z,101630.69
2023-07-18T10:21:01.728Z,101625.50
2023-07-18T10:25:13.438Z,101614.88
2023-07-18T10:29:25.109Z,101618.41
2023-07-18T10:33:36.837Z,101614.91
2023-07-18T10:38:04.209Z,101602.25
2023-07-18T10:42:27.452Z,101597.91
2023-07-18T10:46:39.928Z,101600.88
2023-07-18T10:50:51.736Z,101583.28
2023-07-18T10:55:08.317Z,101575.16
2023-07-18T10:59:20.984Z,101575.16
2023-07-18T11:03:37.132Z,101561.94
2023-07-18T11:07:49.565Z,101559.50
2023-07-18T11:12:01.464Z,101545.66
2023-07-18T11:16:17.175Z,101551.59
2023-07-18T11:20:29.299Z,101540.09
2023-07-18T11:24:43.326Z,101546.59
2023-07-18T11:28:58.102Z,101538.53
2023-07-18T11:33:14.503Z,101522.97
2023-07-18T11:37:26.835Z,101543.38
2023-07-18T11:41:41.030Z,101525.50
2023-07-18T11:45:56.917Z,101531.56
2023-07-18T11:50:14.106Z,101513.22
2023-07-18T11:54:28.008Z,101512.97
2023-07-18T11:58:39.677Z,101524.38
2023-07-18T12:02:51.530Z,101516.78
2023-07-18T12:07:03.357Z,101501.72
2023-07-18T12:11:15.387Z,101504.94
2023-07-18T12:15:28.189Z,101512.22
2023-07-18T12:19:40.183Z,101494.19
2023-07-18T12:23:51.852Z,101479.84
2023-07-18T12:28:09.949Z,101485.00
2023-07-18T12:32:54.227Z,101471.06
2023-07-18T12:37:12.462Z,101472.44
2023-07-18T12:41:25.948Z,101480.81
2023-07-18T12:45:37.561Z,101481.81
2023-07-18T12:54:03.897Z,101487.81
2023-07-18T12:58:15.555Z,101469.53
2023-07-18T13:02:27.177Z,101477.16
2023-07-18T13:06:38.933Z,101485.63
2023-07-18T13:10:50.544Z,101475.09
2023-07-18T13:15:02.192Z,101469.41
2023-07-18T13:19:13.870Z,101465.25
2023-07-18T13:23:25.671Z,101452.31
2023-07-18T13:27:39.814Z,101446.06
2023-07-18T13:31:53.040Z,101446.63
2023-07-18T13:36:06.122Z,101432.47
2023-07-18T13:40:17.701Z,101434.94
2023-07-18T13:44:29.306Z,101428.78
2023-07-18T13:48:41.762Z,101414.25
2023-07-18T13:52:53.638Z,101412.13
2023-07-18T13:57:05.621Z,101413.94
2023-07-18T14:01:17.364Z,101387.59
2023-07-18T14:05:29.853Z,101380.28
2023-07-18T14:09:41.912Z,101379.44
2023-07-18T14:13:53.583Z,101376.56
2023-07-18T14:18:05.259Z,101369.31
2023-07-18T14:22:19.613Z,101363.25
2023-07-18T14:26:31.288Z,101348.75
2023-07-18T14:30:43.476Z,101362.94
2023-07-18T14:34:55.175Z,101352.41
2023-07-18T14:39:06.865Z,101349.56
2023-07-18T14:43:29.095Z,101343.28
2023-07-18T14:47:40.883Z,101334.09
2023-07-18T14:51:52.697Z,101342.19
2023-07-18T14:56:05.201Z,101306.09
2023-07-18T15:00:19.661Z,101327.75
2023-07-18T15:04:31.373Z,101330.97
2023-07-18T15:08:43.095Z,101316.22
2023-07-18T15:12:54.752Z,101311.53
2023-07-18T15:17:06.530Z,101334.13
2023-07-18T15:21:18.211Z,101327.50
2023-07-18T15:25:31.491Z,101320.03
2023-07-18T15:29:44.267Z,101307.53
2023-07-18T15:33:56.012Z,101310.16
2023-07-18T15:38:07.659Z,101326.69
2023-07-18T15:42:20.170Z,101332.44
2023-07-18T15:46:31.906Z,101322.53
2023-07-18T15:50:43.692Z,101315.41
2023-07-18T15:54:55.308Z,101301.09
2023-07-18T15:59:07.250Z,101301.09
2023-07-18T16:03:19.673Z,101283.88
2023-07-18T16:07:31.478Z,101282.78
2023-07-18T16:11:43.136Z,101278.91
2023-07-18T16:15:55.053Z,101281.81
2023-07-18T16:20:07.367Z,101282.31
2023-07-18T16:24:19.117Z,101256.63
2023-07-18T16:28:30.800Z,101274.50
2023-07-18T16:32:42.587Z,101269.78
2023-07-18T16:36:56.432Z,101242.84
2023-07-18T16:41:08.487Z,101239.09
2023-07-18T16:45:20.418Z,101254.38
2023-07-18T16:49:32.180Z,101218.50
2023-07-18T16:53:44.176Z,101230.03
2023-07-18T16:57:55.852Z,101244.47
2023-07-18T17:02:07.508Z,101222.69
2023-07-18T17:06:19.431Z,101220.91
2023-07-18T17:10:31.296Z,101217.00
2023-07-18T17:14:42.910Z,101214.38
2023-07-18T17:18:54.699Z,101206.38
2023-07-18T17:23:07.350Z,101204.09
2023-07-18T17:27:19.036Z,101212.06
2023-07-18T17:31:32.301Z,101183.31
2023-07-18T17:35:44.409Z,101198.59
2023-07-18T17:39:56.447Z,101194.97
2023-07-18T17:44:10.886Z,101197.59
2023-07-18T17:48:24.755Z,101180.50
2023-07-18T17:52:42.825Z,101186.34
2023-07-18T17:57:06.867Z,101179.00
2023-07-18T18:01:21.969Z,101186.91
2023-07-18T18:05:48.405Z,101193.91
2023-07-18T18:10:08.086Z,101180.38
2023-07-18T18:14:19.846Z,101189.56
2023-07-18T18:18:32.158Z,101179.34
2023-07-18T18:22:43.990Z,101187.28
2023-07-18T18:26:55.736Z,101194.16
2023-07-18T18:31:07.553Z,101183.38
2023-07-18T18:35:19.460Z,101162.47
2023-07-18T18:39:31.174Z,101176.22
2023-07-18T18:43:42.937Z,101178.63
2023-07-18T18:47:54.600Z,101168.25
2023-07-18T18:52:06.612Z,101174.34
2023-07-18T18:56:19.005Z,101174.00
2023-07-18T19:00:30.975Z,101179.59
2023-07-18T19:04:43.138Z,101194.69
2023-07-18T19:08:55.587Z,101176.41
2023-07-18T19:13:07.328Z,101185.25
2023-07-18T19:17:19.022Z,101197.44
2023-07-18T19:21:30.690Z,101187.44
2023-07-18T19:25:42.419Z,101192.28
2023-07-18T19:29:54.095Z,101192.28
2023-07-18T19:34:05.742Z,101206.41
2023-07-18T19:38:17.338Z,101196.19
2023-07-18T19:42:28.925Z,101200.97
2023-07-18T19:46:40.626Z,101200.28
2023-07-18T19:50:52.421Z,101194.38
2023-07-18T19:55:04.213Z,101193.91
2023-07-18T19:59:15.755Z,101195.72
2023-07-18T20:03:27.534Z,101193.34
2023-07-18T20:07:40.027Z,101197.47
2023-07-18T20:11:51.809Z,101197.69
2023-07-18T20:16:04.598Z,101204.88
2023-07-18T20:20:16.308Z,101207.06
2023-07-18T20:24:28.093Z,101206.94
2023-07-18T20:28:39.715Z,101199.94
2023-07-18T20:32:51.367Z,101189.25
2023-07-18T20:37:03.687Z,101170.38
2023-07-18T20:41:15.277Z,101172.06
2023-07-18T20:45:27.078Z,101172.34
2023-07-18T20:49:39.333Z,101176.72
2023-07-18T20:53:52.679Z,101153.31
2023-07-18T20:58:04.306Z,101171.59
2023-07-18T21:02:16.055Z,101158.16
2023-07-18T21:06:27.785Z,101170.44
2023-07-18T21:10:39.648Z,101174.34
2023-07-18T21:14:51.390Z,101167.00
2023-07-18T21:19:03.155Z,101169.50
2023-07-18T21:23:14.977Z,101168.97
2023-07-18T21:27:26.760Z,101174.25
2023-07-18T21:31:38.493Z,101161.16
2023-07-18T21:35:50.313Z,101144.31
2023-07-18T21:40:01.971Z,101157.47
2023-07-18T21:44:14.083Z,101145.84
2023-07-18T21:48:26.027Z,101145.72
2023-07-18T21:52:38.081Z,101150.00
2023-07-18T21:56:49.842Z,101142.72
2023-07-18T22:01:01.666Z,101130.22
2023-07-18T22:05:13.515Z,101154.81
2023-07-18T22:09:25.526Z,101137.97
2023-07-18T22:13:37.310Z,101139.38
2023-07-18T22:17:49.121Z,101138.09
2023-07-18T22:22:00.851Z,101142.00
2023-07-18T22:26:14.980Z,101140.41
2023-07-18T22:30:26.800Z,101135.53
2023-07-18T22:34:38.590Z,101139.66
2023-07-18T22:38:50.296Z,101147.84
2023-07-18T22:43:02.046Z,101126.31
2023-07-18T22:47:14.238Z,101139.72
2023-07-18T22:51:26.372Z,101136.19
2023-07-18T22:55:38.244Z,101135.66
2023-07-18T22:59:49.950Z,101126.13
2023-07-18T23:04:01.682Z,101119.38
2023-07-18T23:08:13.378Z,101123.22
2023-07-18T23:12:25.071Z,101120.25
2023-07-18T23:16:36.803Z,101115.94
2023-07-18T23:20:48.647Z,101118.97
2023-07-18T23:25:00.519Z,101120.38
2023-07-18T23:29:12.312Z,101106.75
2023-07-18T23:33:23.969Z,101102.69
2023-07-18T23:37:35.663Z,101101.88
2023-07-18T23:41:47.343Z,101099.16
2023-07-18T23:45:59.176Z,101110.88
2023-07-18T23:50:10.905Z,101105.94
2023-07-18T23:54:22.965Z,101107.03
2023-07-18T23:58:34.820Z,101111.41
